Time;durP1;ratioP1;P1;durP2;ratioP2;P2;SDS_P1;SDS_P2;PMS_P1;PMS_P2;Temp;Humidity;BMP_temperature;BMP_pressure;BME280_temperature;BME280_humidity;BME280_pressure;Samples;Min_cycle;Max_cycle;Signal;HPM_P1;HPM_P2
2023/09/25 00:00:36;;;;;;;21.50;20.30;;;;;;;;;;5035908;28;20427;-81
2023/09/25 00:03:04;;;;;;;22.00;20.80;;;;;;;;;;5035223;28;20874;-82
2023/09/25 00:05:32;;;;;;;20.93;19.83;;;;;;;;;;5035099;28;20509;-82
2023/09/25 00:08:00;;;;;;;22.03;20.93;;;;;;;;;;5033796;28;20460;-82
2023/09/25 00:10:29;;;;;;;21.70;20.60;;;;;;;;;;5035630;28;20530;-82
2023/09/25 00:12:56;;;;;;;21.63;20.53;;;;;;;;;;5035299;28;20486;-81
2023/09/25 00:15:25;;;;;;;22.17;20.77;;;;;;;;;;5035694;28;20426;-82
2023/09/25 00:17:53;;;;;;;21.83;20.73;;;;;;;;;;5035018;28;20452;-81
2023/09/25 00:20:23;;;;;;;21.87;20.60;;;;;;;;;;5034840;28;20468;-82
2023/09/25 00:22:51;;;;;;;21.67;20.27;;;;;;;;;;5034957;28;20449;-82
2023/09/25 00:25:19;;;;;;;21.53;20.03;;;;;;;;;;5033614;28;20418;-82
2023/09/25 00:27:46;;;;;;;21.60;20.40;;;;;;;;;;5035282;28;20426;-82
2023/09/25 00:30:14;;;;;;;21.17;20.07;;;;;;;;;;5035276;28;20423;-82
2023/09/25 00:32:42;;;;;;;21.77;20.50;;;;;;;;;;5034880;28;20498;-83
2023/09/25 00:35:10;;;;;;;21.40;20.20;;;;;;;;;;5035399;28;20426;-82
2023/09/25 00:37:37;;;;;;;21.73;20.43;;;;;;;;;;5035021;28;20506;-81
2023/09/25 00:40:13;;;;;;;21.60;20.40;;;;;;;;;;5035083;28;20998;-81
2023/09/25 00:42:40;;;;;;;22.17;20.43;;;;;;;;;;5034908;28;20481;-82
2023/09/25 00:45:08;;;;;;;21.37;20.23;;;;;;;;;;5034889;28;20435;-82
2023/09/25 00:47:35;;;;;;;21.10;19.90;;;;;;;;;;5034110;28;20451;-82
2023/09/25 00:50:04;;;;;;;21.77;20.57;;;;;;;;;;5034227;28;20421;-82
2023/09/25 00:52:33;;;;;;;21.93;20.73;;;;;;;;;;5033831;28;20466;-82
2023/09/25 00:55:03;;;;;;;21.97;20.60;;;;;;;;;;5035039;28;20921;-82
2023/09/25 00:57:30;;;;;;;21.30;20.10;;;;;;;;;;5034117;28;20538;-83
2023/09/25 00:59:57;;;;;;;22.30;21.10;;;;;;;;;;5034356;28;20517;-81
2023/09/25 01:02:24;;;;;;;21.93;20.73;;;;;;;;;;5035102;28;20442;-82
2023/09/25 01:04:52;;;;;;;22.20;20.90;;;;;;;;;;5034866;28;20429;-81
2023/09/25 01:07:20;;;;;;;21.20;20.00;;;;;;;;;;5034136;28;20453;-82
2023/09/25 01:10:02;;;;;;;22.00;20.70;;;;;;;;;;5034217;28;20470;-81
2023/09/25 01:12:29;;;;;;;20.93;19.83;;;;;;;;;;5033901;28;20430;-82
2023/09/25 01:14:57;;;;;;;21.63;20.50;;;;;;;;;;5034766;28;20430;-82
2023/09/25 01:17:24;;;;;;;22.13;20.70;;;;;;;;;;5035307;28;20501;-82
2023/09/25 01:19:51;;;;;;;22.10;20.90;;;;;;;;;;5038283;28;20432;-82
2023/09/25 01:22:19;;;;;;;21.40;20.03;;;;;;;;;;5038085;28;20475;-82
2023/09/25 01:24:47;;;;;;;21.67;20.37;;;;;;;;;;5037599;28;20414;-83
2023/09/25 01:27:14;;;;;;;21.17;19.90;;;;;;;;;;5037374;28;20403;-82
2023/09/25 01:29:42;;;;;;;20.80;19.60;;;;;;;;;;5037134;28;20470;-82
2023/09/25 01:32:09;;;;;;;21.37;20.23;;;;;;;;;;5037895;28;20446;-81
2023/09/25 01:34:36;;;;;;;21.40;20.30;;;;;;;;;;5037597;28;20840;-82
2023/09/25 01:37:05;;;;;;;21.67;20.30;;;;;;;;;;5037571;28;20430;-82
2023/09/25 01:39:35;;;;;;;21.97;20.87;;;;;;;;;;5037992;28;21103;-82
2023/09/25 01:42:03;;;;;;;20.83;19.73;;;;;;;;;;5038282;28;20506;-82
2023/09/25 01:44:30;;;;;;;26.33;20.33;;;;;;;;;;5038133;28;20459;-82
2023/09/25 01:46:58;;;;;;;21.90;20.67;;;;;;;;;;5037421;28;20433;-82
2023/09/25 01:49:26;;;;;;;20.57;19.53;;;;;;;;;;5038217;28;20528;-82
2023/09/25 01:51:53;;;;;;;21.97;20.60;;;;;;;;;;5037449;28;20542;-82
2023/09/25 01:54:21;;;;;;;21.20;20.10;;;;;;;;;;5037866;28;20465;-83
2023/09/25 01:56:49;;;;;;;20.60;19.60;;;;;;;;;;5037816;28;20427;-82
2023/09/25 01:59:17;;;;;;;20.60;19.60;;;;;;;;;;5020649;28;20455;-82
2023/09/25 02:01:44;;;;;;;21.23;20.03;;;;;;;;;;5017462;28;20427;-82
2023/09/25 02:04:11;;;;;;;21.63;20.43;;;;;;;;;;5018409;28;20456;-81
2023/09/25 02:06:38;;;;;;;21.87;20.60;;;;;;;;;;5017898;28;20452;-81
2023/09/25 02:09:05;;;;;;;20.70;19.50;;;;;;;;;;5018400;28;20427;-82
2023/09/25 02:11:32;;;;;;;20.67;19.67;;;;;;;;;;5018396;28;20436;-82
2023/09/25 02:14:01;;;;;;;20.33;19.33;;;;;;;;;;5017892;28;20491;-82
2023/09/25 02:16:29;;;;;;;20.50;19.37;;;;;;;;;;5017458;28;20453;-82
2023/09/25 02:18:59;;;;;;;21.00;19.70;;;;;;;;;;5017378;28;21089;-82
2023/09/25 02:21:26;;;;;;;21.07;19.97;;;;;;;;;;5018745;28;20423;-82
2023/09/25 02:23:53;;;;;;;21.23;20.03;;;;;;;;;;5016086;28;20450;-82
2023/09/25 02:26:20;;;;;;;20.90;19.90;;;;;;;;;;5017202;28;20407;-82
2023/09/25 02:28:47;;;;;;;20.70;19.60;;;;;;;;;;5017488;28;20448;-82
2023/09/25 02:31:15;;;;;;;20.60;19.50;;;;;;;;;;5017230;28;20416;-83
2023/09/25 02:33:42;;;;;;;20.80;19.70;;;;;;;;;;5017582;28;21182;-81
2023/09/25 02:36:10;;;;;;;20.23;19.23;;;;;;;;;;5016658;28;20436;-82
2023/09/25 02:38:37;;;;;;;20.53;19.23;;;;;;;;;;5017620;28;20428;-82
2023/09/25 02:41:04;;;;;;;20.70;19.60;;;;;;;;;;5016499;28;20960;-81
2023/09/25 02:43:31;;;;;;;20.83;19.73;;;;;;;;;;5017191;28;20480;-82
2023/09/25 02:45:59;;;;;;;21.03;19.67;;;;;;;;;;5016755;28;20799;-81
2023/09/25 02:48:27;;;;;;;20.37;19.17;;;;;;;;;;5017583;28;20427;-83
2023/09/25 02:50:54;;;;;;;19.53;18.63;;;;;;;;;;5017268;28;20791;-81
2023/09/25 02:53:21;;;;;;;20.57;19.57;;;;;;;;;;5017714;28;20459;-82
2023/09/25 02:55:50;;;;;;;21.10;19.90;;;;;;;;;;5016747;28;20419;-82
2023/09/25 02:58:17;;;;;;;19.97;18.90;;;;;;;;;;5017340;28;20485;-82
2023/09/25 03:00:44;;;;;;;19.90;18.90;;;;;;;;;;5016970;28;20438;-82
2023/09/25 03:03:12;;;;;;;21.40;20.20;;;;;;;;;;5017160;28;20842;-83
2023/09/25 03:05:40;;;;;;;20.27;19.17;;;;;;;;;;5016909;28;20484;-81
2023/09/25 03:08:07;;;;;;;21.70;20.07;;;;;;;;;;5017565;28;20437;-82
2023/09/25 03:10:34;;;;;;;20.13;19.13;;;;;;;;;;5016507;28;20450;-83
2023/09/25 03:13:01;;;;;;;19.50;18.50;;;;;;;;;;5016818;28;20464;-82
2023/09/25 03:15:28;;;;;;;20.10;19.20;;;;;;;;;;5016821;28;21015;-82
2023/09/25 03:17:55;;;;;;;20.97;19.87;;;;;;;;;;5016382;28;20426;-82
2023/09/25 03:20:24;;;;;;;20.60;19.50;;;;;;;;;;5016312;28;20420;-83
2023/09/25 03:22:54;;;;;;;20.27;19.27;;;;;;;;;;5016047;28;20447;-82
2023/09/25 03:25:24;;;;;;;20.57;19.53;;;;;;;;;;5015574;28;20476;-82
2023/09/25 03:27:51;;;;;;;20.27;19.27;;;;;;;;;;5015554;28;20444;-82
2023/09/25 03:30:18;;;;;;;20.93;19.83;;;;;;;;;;5016194;28;20438;-82
2023/09/25 03:32:46;;;;;;;20.87;19.87;;;;;;;;;;5016173;28;20443;-82
2023/09/25 03:35:13;;;;;;;20.50;19.50;;;;;;;;;;5015913;28;20475;-83
2023/09/25 03:37:40;;;;;;;20.83;19.73;;;;;;;;;;5015957;28;20756;-82
2023/09/25 03:40:10;;;;;;;20.77;19.67;;;;;;;;;;5015000;28;20493;-82
2023/09/25 03:42:37;;;;;;;20.50;19.40;;;;;;;;;;5015757;28;20443;-82
2023/09/25 03:45:05;;;;;;;20.70;19.60;;;;;;;;;;5015639;28;20896;-81
2023/09/25 03:47:32;;;;;;;21.50;20.30;;;;;;;;;;5015695;28;20447;-83
2023/09/25 03:49:59;;;;;;;21.93;20.70;;;;;;;;;;5016520;28;20449;-82
2023/09/25 03:52:27;;;;;;;20.83;19.83;;;;;;;;;;5015956;28;20455;-82
2023/09/25 03:54:54;;;;;;;21.90;20.70;;;;;;;;;;5015806;28;20491;-82
2023/09/25 03:57:22;;;;;;;21.00;20.00;;;;;;;;;;5015782;28;20453;-81
2023/09/25 03:59:50;;;;;;;20.97;19.70;;;;;;;;;;5016190;28;20430;-82
2023/09/25 04:02:17;;;;;;;21.50;20.40;;;;;;;;;;5016587;28;20503;-82
2023/09/25 04:04:44;;;;;;;21.80;20.70;;;;;;;;;;5016065;28;20418;-82
2023/09/25 04:07:11;;;;;;;20.90;19.80;;;;;;;;;;5015365;28;20431;-82
2023/09/25 04:09:39;;;;;;;21.30;20.20;;;;;;;;;;5015994;28;20444;-82
2023/09/25 04:12:08;;;;;;;21.60;20.47;;;;;;;;;;5015861;28;20468;-82
2023/09/25 04:14:37;;;;;;;21.80;20.60;;;;;;;;;;5016285;28;20829;-81
2023/09/25 04:17:04;;;;;;;21.10;19.93;;;;;;;;;;5014867;28;20427;-82
2023/09/25 04:19:32;;;;;;;21.10;20.00;;;;;;;;;;5016325;28;20423;-83
2023/09/25 04:22:03;;;;;;;21.80;20.70;;;;;;;;;;5015705;28;20436;-82
2023/09/25 04:24:30;;;;;;;21.90;20.70;;;;;;;;;;5015711;28;20452;-82
2023/09/25 04:26:57;;;;;;;20.73;19.63;;;;;;;;;;5015243;28;20455;-81
2023/09/25 04:29:24;;;;;;;20.80;19.70;;;;;;;;;;5015988;28;20427;-83
2023/09/25 04:31:53;;;;;;;21.70;20.60;;;;;;;;;;5015766;28;20442;-82
2023/09/25 04:34:20;;;;;;;21.00;19.90;;;;;;;;;;5015916;28;20830;-81
2023/09/25 04:36:47;;;;;;;21.00;19.67;;;;;;;;;;5014951;28;20411;-82
2023/09/25 04:39:16;;;;;;;20.90;19.80;;;;;;;;;;5015726;28;20423;-82
2023/09/25 04:41:43;;;;;;;21.33;20.23;;;;;;;;;;5014158;28;20468;-82
2023/09/25 04:44:10;;;;;;;20.90;19.60;;;;;;;;;;5015865;28;20426;-82
2023/09/25 04:46:38;;;;;;;21.27;20.10;;;;;;;;;;5015457;28;20448;-83
2023/09/25 04:49:07;;;;;;;21.57;20.37;;;;;;;;;;5015929;28;20830;-82
2023/09/25 04:51:35;;;;;;;21.63;20.53;;;;;;;;;;5016264;28;20460;-82
2023/09/25 04:54:03;;;;;;;21.43;20.27;;;;;;;;;;5018806;28;20466;-82
2023/09/25 04:56:30;;;;;;;20.97;19.87;;;;;;;;;;5018473;28;20456;-82
2023/09/25 04:58:57;;;;;;;21.30;20.07;;;;;;;;;;5019953;28;20950;-83
2023/09/25 05:01:25;;;;;;;21.33;20.03;;;;;;;;;;5019586;28;20426;-82
2023/09/25 05:03:52;;;;;;;22.53;21.13;;;;;;;;;;5018832;28;20996;-81
2023/09/25 05:06:20;;;;;;;21.43;20.13;;;;;;;;;;5018722;28;20468;-82
2023/09/25 05:08:48;;;;;;;21.00;19.80;;;;;;;;;;5019408;28;20948;-82
2023/09/25 05:11:15;;;;;;;20.63;19.63;;;;;;;;;;5019719;28;20456;-82
2023/09/25 05:13:42;;;;;;;20.60;19.50;;;;;;;;;;5019397;28;20950;-81
2023/09/25 05:16:10;;;;;;;20.53;19.43;;;;;;;;;;5020120;28;20432;-82
2023/09/25 05:18:37;;;;;;;20.63;19.53;;;;;;;;;;5020566;28;20441;-82
2023/09/25 05:21:05;;;;;;;20.50;19.40;;;;;;;;;;5019756;28;20447;-83
2023/09/25 05:23:34;;;;;;;20.77;19.47;;;;;;;;;;5020368;28;20805;-83
2023/09/25 05:26:01;;;;;;;21.00;19.80;;;;;;;;;;5018574;28;20423;-82
2023/09/25 05:28:29;;;;;;;21.20;20.00;;;;;;;;;;5020605;28;20400;-82
2023/09/25 05:30:56;;;;;;;20.60;19.43;;;;;;;;;;5020285;28;20431;-83
2023/09/25 05:33:23;;;;;;;20.97;19.67;;;;;;;;;;5020287;28;20914;-81
2023/09/25 05:35:52;;;;;;;20.70;19.50;;;;;;;;;;5020166;28;20557;-83
2023/09/25 05:38:19;;;;;;;21.03;19.63;;;;;;;;;;5027677;28;20451;-82
2023/09/25 05:40:50;;;;;;;20.83;19.73;;;;;;;;;;5036264;28;20475;-80
2023/09/25 05:43:17;;;;;;;21.80;20.40;;;;;;;;;;5036115;28;20479;-80
2023/09/25 05:45:44;;;;;;;21.67;20.57;;;;;;;;;;5035690;28;20950;-79
2023/09/25 05:48:11;;;;;;;21.13;20.03;;;;;;;;;;5036437;28;20455;-80
2023/09/25 05:50:39;;;;;;;21.23;20.03;;;;;;;;;;5036397;28;20455;-80
2023/09/25 05:53:06;;;;;;;21.33;20.13;;;;;;;;;;5036950;28;20474;-79
2023/09/25 05:55:33;;;;;;;23.53;22.17;;;;;;;;;;5035853;28;20461;-80
2023/09/25 05:58:03;;;;;;;21.23;20.13;;;;;;;;;;5035892;28;20517;-80
2023/09/25 06:00:30;;;;;;;20.17;19.00;;;;;;;;;;5036495;28;20466;-80
2023/09/25 06:02:57;;;;;;;20.80;19.70;;;;;;;;;;5035509;28;20562;-80
2023/09/25 06:05:27;;;;;;;20.33;19.23;;;;;;;;;;5036256;28;20458;-80
2023/09/25 06:07:54;;;;;;;20.80;19.60;;;;;;;;;;5035831;28;20946;-80
2023/09/25 06:10:23;;;;;;;20.07;18.97;;;;;;;;;;5036436;28;20440;-80
2023/09/25 06:12:50;;;;;;;20.53;19.43;;;;;;;;;;5035691;28;20475;-81
2023/09/25 06:15:19;;;;;;;19.70;18.60;;;;;;;;;;5035846;28;20545;-80
2023/09/25 06:17:47;;;;;;;20.97;19.87;;;;;;;;;;5035402;28;21032;-81
2023/09/25 06:20:15;;;;;;;20.10;19.03;;;;;;;;;;5035404;28;20962;-80
2023/09/25 06:22:43;;;;;;;19.60;18.50;;;;;;;;;;5035679;28;20442;-81
2023/09/25 06:25:13;;;;;;;19.80;18.80;;;;;;;;;;5034227;28;20509;-81
2023/09/25 06:27:44;;;;;;;19.73;18.63;;;;;;;;;;5035139;28;20444;-80
2023/09/25 06:30:11;;;;;;;20.20;18.70;;;;;;;;;;5034916;28;20425;-80
2023/09/25 06:32:40;;;;;;;19.10;17.90;;;;;;;;;;5034312;28;20491;-81
2023/09/25 06:35:07;;;;;;;19.13;17.90;;;;;;;;;;5035123;28;20495;-81
2023/09/25 06:37:35;;;;;;;19.23;18.13;;;;;;;;;;5034863;28;20621;-80
2023/09/25 06:40:03;;;;;;;18.67;17.70;;;;;;;;;;5035911;28;20425;-80
2023/09/25 06:42:30;;;;;;;18.73;17.70;;;;;;;;;;5035256;28;20476;-82
2023/09/25 06:44:59;;;;;;;18.70;17.70;;;;;;;;;;5035258;28;20513;-81
2023/09/25 06:47:26;;;;;;;20.27;18.80;;;;;;;;;;5033641;28;20486;-80
2023/09/25 06:49:56;;;;;;;20.07;19.07;;;;;;;;;;5035126;28;20426;-81
2023/09/25 06:52:25;;;;;;;19.43;18.43;;;;;;;;;;5034937;28;20563;-81
2023/09/25 06:54:52;;;;;;;20.50;19.20;;;;;;;;;;5035721;28;20526;-81
2023/09/25 06:57:19;;;;;;;19.83;18.73;;;;;;;;;;5034586;28;20948;-81
2023/09/25 06:59:47;;;;;;;19.87;18.87;;;;;;;;;;5034970;28;20527;-81
2023/09/25 07:02:15;;;;;;;18.70;17.70;;;;;;;;;;5034140;28;20470;-80
2023/09/25 07:04:42;;;;;;;20.03;19.03;;;;;;;;;;5034470;28;20554;-81
2023/09/25 07:07:11;;;;;;;19.83;18.80;;;;;;;;;;5033961;28;20444;-80
2023/09/25 07:09:38;;;;;;;19.83;18.83;;;;;;;;;;5034719;28;20508;-82
2023/09/25 07:12:05;;;;;;;19.70;18.70;;;;;;;;;;5034943;28;20471;-82
2023/09/25 07:14:32;;;;;;;20.53;19.20;;;;;;;;;;5034096;28;20470;-83
2023/09/25 07:16:59;;;;;;;20.23;19.13;;;;;;;;;;5034724;28;20932;-82
2023/09/25 07:19:26;;;;;;;19.60;18.60;;;;;;;;;;5034915;28;20415;-81
2023/09/25 07:21:53;;;;;;;20.93;19.40;;;;;;;;;;5035115;28;20430;-82
2023/09/25 07:24:23;;;;;;;19.87;18.77;;;;;;;;;;5035455;28;20465;-81
2023/09/25 07:26:51;;;;;;;19.70;18.80;;;;;;;;;;5034643;28;20547;-82
2023/09/25 07:29:19;;;;;;;20.47;19.47;;;;;;;;;;5034782;28;20513;-82
2023/09/25 07:31:46;;;;;;;19.23;18.33;;;;;;;;;;5035069;28;20443;-82
2023/09/25 07:34:13;;;;;;;20.00;19.00;;;;;;;;;;5035649;28;20463;-80
2023/09/25 07:36:41;;;;;;;19.90;18.83;;;;;;;;;;5035449;28;20490;-81
2023/09/25 07:39:13;;;;;;;20.00;18.90;;;;;;;;;;5036411;28;20447;-82
2023/09/25 07:41:41;;;;;;;19.87;18.70;;;;;;;;;;5028495;28;20472;-82
2023/09/25 07:44:11;;;;;;;19.77;18.77;;;;;;;;;;5030205;28;20443;-82
2023/09/25 07:46:39;;;;;;;19.87;18.77;;;;;;;;;;5034434;28;20519;-81
2023/09/25 07:49:06;;;;;;;19.63;18.73;;;;;;;;;;5035291;28;20913;-82
2023/09/25 07:51:34;;;;;;;19.77;18.77;;;;;;;;;;5036126;28;20447;-82
2023/09/25 07:54:02;;;;;;;20.33;19.33;;;;;;;;;;5036329;28;20498;-82
2023/09/25 07:56:36;;;;;;;20.10;19.10;;;;;;;;;;5035449;28;20538;-82
2023/09/25 07:59:04;;;;;;;19.77;18.60;;;;;;;;;;5036119;28;20430;-81
2023/09/25 08:01:31;;;;;;;20.00;18.90;;;;;;;;;;5035828;28;20891;-82
2023/09/25 08:03:59;;;;;;;20.20;19.20;;;;;;;;;;5035026;28;20474;-82
2023/09/25 08:06:27;;;;;;;20.63;19.30;;;;;;;;;;5018296;28;20434;-81
2023/09/25 08:08:54;;;;;;;19.90;18.90;;;;;;;;;;5015953;28;20852;-82
2023/09/25 08:11:21;;;;;;;19.93;19.03;;;;;;;;;;5016200;28;20431;-81
2023/09/25 08:13:49;;;;;;;20.10;19.10;;;;;;;;;;5017154;28;20456;-82
2023/09/25 08:16:18;;;;;;;20.10;18.63;;;;;;;;;;5024383;28;20965;-81
2023/09/25 08:18:46;;;;;;;20.27;19.13;;;;;;;;;;5018600;28;20460;-78
2023/09/25 08:21:13;;;;;;;20.23;19.23;;;;;;;;;;5018187;28;20431;-82
2023/09/25 08:23:40;;;;;;;19.97;18.87;;;;;;;;;;5025375;28;21307;-80
2023/09/25 08:26:07;;;;;;;20.00;19.00;;;;;;;;;;5033992;28;20794;-81
2023/09/25 08:28:36;;;;;;;20.07;18.90;;;;;;;;;;5035456;28;20429;-80
2023/09/25 08:31:03;;;;;;;21.20;20.00;;;;;;;;;;5035110;28;20423;-79
2023/09/25 08:33:31;;;;;;;20.67;19.57;;;;;;;;;;5034157;28;20490;-80
2023/09/25 08:35:58;;;;;;;20.90;19.83;;;;;;;;;;5040091;28;20482;-79
2023/09/25 08:38:26;;;;;;;20.70;19.70;;;;;;;;;;5055236;28;20429;-80
2023/09/25 08:40:53;;;;;;;21.00;19.73;;;;;;;;;;5053724;28;20465;-78
2023/09/25 08:43:21;;;;;;;20.30;19.20;;;;;;;;;;5051498;28;20452;-80
2023/09/25 08:45:51;;;;;;;20.40;19.33;;;;;;;;;;5052820;28;20481;-83
2023/09/25 08:48:19;;;;;;;21.07;19.87;;;;;;;;;;5056048;28;20455;-81
2023/09/25 08:50:48;;;;;;;20.57;19.30;;;;;;;;;;5055670;28;20500;-81
2023/09/25 08:53:15;;;;;;;20.40;19.30;;;;;;;;;;5055856;28;20535;-81
2023/09/25 08:55:44;;;;;;;21.17;19.97;;;;;;;;;;5054246;28;20485;-81
2023/09/25 08:58:11;;;;;;;20.90;19.80;;;;;;;;;;5056532;28;20453;-81
2023/09/25 09:00:39;;;;;;;20.33;19.23;;;;;;;;;;5055581;28;20441;-82
2023/09/25 09:03:06;;;;;;;20.17;19.07;;;;;;;;;;5053270;28;20440;-82
2023/09/25 09:05:33;;;;;;;20.93;19.73;;;;;;;;;;5052669;28;20418;-85
2023/09/25 09:08:03;;;;;;;21.47;20.27;;;;;;;;;;5053735;28;20434;-84
2023/09/25 09:10:33;;;;;;;19.80;18.70;;;;;;;;;;5054060;28;20481;-81
2023/09/25 09:13:01;;;;;;;20.60;19.43;;;;;;;;;;5053928;28;20467;-81
2023/09/25 09:15:29;;;;;;;20.40;19.40;;;;;;;;;;5053242;28;20461;-80
2023/09/25 09:17:56;;;;;;;20.43;19.33;;;;;;;;;;5053516;28;20454;-79
2023/09/25 09:20:24;;;;;;;21.50;20.20;;;;;;;;;;5054339;28;20463;-81
2023/09/25 09:22:52;;;;;;;21.13;20.03;;;;;;;;;;5052963;28;20957;-81
2023/09/25 09:25:21;;;;;;;20.20;19.20;;;;;;;;;;5017260;28;20499;-83
2023/09/25 09:27:49;;;;;;;21.20;19.90;;;;;;;;;;5016962;28;20445;-83
2023/09/25 09:30:22;;;;;;;21.17;20.07;;;;;;;;;;5017687;28;20563;-82
2023/09/25 09:32:50;;;;;;;21.30;20.10;;;;;;;;;;5014872;28;20439;-83
2023/09/25 09:35:22;;;;;;;21.30;20.17;;;;;;;;;;5030579;28;20556;-80
2023/09/25 09:37:52;;;;;;;20.77;19.67;;;;;;;;;;5033962;28;20450;-81
2023/09/25 09:40:21;;;;;;;20.30;19.30;;;;;;;;;;5037444;28;20508;-82
2023/09/25 09:42:49;;;;;;;20.80;19.70;;;;;;;;;;5038680;28;20467;-83
2023/09/25 09:45:16;;;;;;;21.83;20.63;;;;;;;;;;5036096;28;20463;-83
2023/09/25 09:47:45;;;;;;;22.73;21.47;;;;;;;;;;5024826;28;20449;-82
2023/09/25 09:50:13;;;;;;;22.03;20.93;;;;;;;;;;5021225;28;20456;-81
2023/09/25 09:52:41;;;;;;;22.37;21.10;;;;;;;;;;5022163;28;20504;-82
2023/09/25 09:55:10;;;;;;;21.93;20.67;;;;;;;;;;5021626;28;20865;-82
2023/09/25 09:57:39;;;;;;;21.00;19.90;;;;;;;;;;5020921;28;20545;-83
2023/09/25 10:00:07;;;;;;;20.73;19.63;;;;;;;;;;5020632;28;20436;-80
2023/09/25 10:02:35;;;;;;;20.63;19.43;;;;;;;;;;5021326;28;20447;-82
2023/09/25 10:05:02;;;;;;;21.40;20.00;;;;;;;;;;5028474;28;20479;-81
2023/09/25 10:07:29;;;;;;;21.13;19.93;;;;;;;;;;5041550;28;20873;-82
2023/09/25 10:09:57;;;;;;;21.37;20.17;;;;;;;;;;5041101;28;20456;-82
2023/09/25 10:12:40;;;;;;;21.93;20.70;;;;;;;;;;5041011;28;20446;-82
2023/09/25 10:15:12;;;;;;;21.60;20.50;;;;;;;;;;5039175;28;20463;-83
2023/09/25 10:17:42;;;;;;;21.80;20.60;;;;;;;;;;5041075;28;20418;-82
2023/09/25 10:20:25;;;;;;;21.37;20.17;;;;;;;;;;5041411;28;20452;-83
2023/09/25 10:22:52;;;;;;;23.10;21.90;;;;;;;;;;5039803;28;20537;-86
2023/09/25 10:25:19;;;;;;;22.10;20.90;;;;;;;;;;5040634;28;20440;-83
2023/09/25 10:27:47;;;;;;;21.87;20.60;;;;;;;;;;5038964;28;20447;-83
2023/09/25 10:30:17;;;;;;;21.27;20.07;;;;;;;;;;5040991;28;20454;-82
2023/09/25 10:32:50;;;;;;;21.90;20.60;;;;;;;;;;5040355;28;20479;-82
2023/09/25 10:35:36;;;;;;;22.73;21.43;;;;;;;;;;5034975;28;20447;-82
2023/09/25 10:38:13;;;;;;;21.33;20.23;;;;;;;;;;5037345;28;20510;-81
2023/09/25 10:40:43;;;;;;;22.23;20.83;;;;;;;;;;5040262;28;20447;-82
2023/09/25 10:43:10;;;;;;;22.20;21.00;;;;;;;;;;5040894;28;20464;-83
2023/09/25 10:45:39;;;;;;;22.37;21.07;;;;;;;;;;5041141;28;20418;-82
2023/09/25 10:48:06;;;;;;;22.17;20.97;;;;;;;;;;5041636;28;20452;-83
2023/09/25 10:50:33;;;;;;;22.90;21.60;;;;;;;;;;5042098;28;20443;-82
2023/09/25 10:53:00;;;;;;;22.37;21.20;;;;;;;;;;5041302;28;20438;-83
2023/09/25 10:55:28;;;;;;;23.13;21.83;;;;;;;;;;5041668;28;20422;-83
2023/09/25 10:57:55;;;;;;;21.87;20.67;;;;;;;;;;5040961;28;20788;-81
2023/09/25 11:00:23;;;;;;;22.70;21.50;;;;;;;;;;5041781;28;20447;-82
2023/09/25 11:02:52;;;;;;;22.57;21.37;;;;;;;;;;5038239;28;20890;-82
2023/09/25 11:05:21;;;;;;;22.83;21.43;;;;;;;;;;5035402;28;20472;-80
2023/09/25 11:07:49;;;;;;;23.00;21.60;;;;;;;;;;5036295;28;20456;-80
2023/09/25 11:10:17;;;;;;;23.37;22.17;;;;;;;;;;5035928;28;20802;-81
2023/09/25 11:12:47;;;;;;;23.07;21.67;;;;;;;;;;5036524;28;20463;-82
2023/09/25 11:15:14;;;;;;;23.17;21.60;;;;;;;;;;5036711;28;20456;-82
2023/09/25 11:17:41;;;;;;;22.80;21.40;;;;;;;;;;5035044;28;20488;-81
2023/09/25 11:20:18;;;;;;;22.97;21.57;;;;;;;;;;5037307;28;20470;-81
2023/09/25 11:22:46;;;;;;;23.20;22.00;;;;;;;;;;5036989;28;20463;-82
2023/09/25 11:25:15;;;;;;;23.90;22.40;;;;;;;;;;5036278;28;20438;-81
2023/09/25 11:27:51;;;;;;;23.20;21.90;;;;;;;;;;5036394;28;20426;-81
2023/09/25 11:30:18;;;;;;;23.57;22.27;;;;;;;;;;5037381;28;20446;-80
2023/09/25 11:32:45;;;;;;;22.90;21.50;;;;;;;;;;5035632;28;20438;-81
2023/09/25 11:35:18;;;;;;;23.00;21.70;;;;;;;;;;5034960;28;21188;-78
2023/09/25 11:37:58;;;;;;;22.93;21.70;;;;;;;;;;5034960;28;20903;-82
2023/09/25 11:40:26;;;;;;;22.23;20.93;;;;;;;;;;5035413;28;20505;-80
2023/09/25 11:42:53;;;;;;;22.40;21.10;;;;;;;;;;5035470;28;20502;-80
2023/09/25 11:45:20;;;;;;;22.47;21.27;;;;;;;;;;5035673;28;20784;-80
2023/09/25 11:47:47;;;;;;;22.87;21.53;;;;;;;;;;5034718;28;20427;-80
2023/09/25 11:50:16;;;;;;;22.70;21.20;;;;;;;;;;5034863;28;20433;-80
2023/09/25 11:52:43;;;;;;;21.87;20.67;;;;;;;;;;5034981;28;20486;-82
2023/09/25 11:55:11;;;;;;;22.57;21.27;;;;;;;;;;5017033;28;20455;-84
2023/09/25 11:57:38;;;;;;;22.30;21.00;;;;;;;;;;5017836;28;20435;-81
2023/09/25 12:00:06;;;;;;;20.83;19.63;;;;;;;;;;5017891;28;20426;-83
2023/09/25 12:02:34;;;;;;;22.03;20.30;;;;;;;;;;5018715;28;20466;-81
2023/09/25 12:05:01;;;;;;;21.80;20.40;;;;;;;;;;5018967;28;20518;-84
2023/09/25 12:07:30;;;;;;;22.27;20.87;;;;;;;;;;5018314;28;20885;-82
2023/09/25 12:10:00;;;;;;;21.40;20.20;;;;;;;;;;5020132;28;21030;-82
2023/09/25 12:12:27;;;;;;;22.83;21.27;;;;;;;;;;5018966;28;20458;-83
2023/09/25 12:14:56;;;;;;;22.70;21.40;;;;;;;;;;5020152;28;20873;-81
2023/09/25 12:17:25;;;;;;;22.50;21.10;;;;;;;;;;5019058;28;20463;-82
2023/09/25 12:19:52;;;;;;;22.00;20.70;;;;;;;;;;5019818;28;20484;-83
2023/09/25 12:22:19;;;;;;;23.03;21.40;;;;;;;;;;5020235;28;20435;-82
2023/09/25 12:24:48;;;;;;;23.00;21.67;;;;;;;;;;5019770;28;20527;-81
2023/09/25 12:27:16;;;;;;;22.70;21.30;;;;;;;;;;5015863;28;20452;-83
2023/09/25 12:29:44;;;;;;;23.07;21.47;;;;;;;;;;5018689;28;20536;-84
2023/09/25 12:32:12;;;;;;;23.13;21.80;;;;;;;;;;5036605;28;21062;-83
2023/09/25 12:34:40;;;;;;;22.87;21.57;;;;;;;;;;5034061;28;20455;-77
2023/09/25 12:37:07;;;;;;;22.83;21.43;;;;;;;;;;5033962;28;20851;-81
2023/09/25 12:39:35;;;;;;;22.87;21.57;;;;;;;;;;5035956;28;20448;-85
2023/09/25 12:42:03;;;;;;;22.57;21.23;;;;;;;;;;5036294;28;20556;-86
2023/09/25 12:44:30;;;;;;;23.40;21.80;;;;;;;;;;5025894;28;21145;-85
2023/09/25 12:47:00;;;;;;;23.27;21.80;;;;;;;;;;5017927;28;20447;-84
2023/09/25 12:49:27;;;;;;;23.60;22.10;;;;;;;;;;5018863;28;20423;-84
2023/09/25 12:51:54;;;;;;;22.43;21.03;;;;;;;;;;5017737;28;20820;-80
2023/09/25 12:54:21;;;;;;;22.90;21.60;;;;;;;;;;5016010;28;20431;-88
2023/09/25 12:56:49;;;;;;;23.00;21.80;;;;;;;;;;5015120;28;21126;-83
2023/09/25 12:59:18;;;;;;;22.60;21.30;;;;;;;;;;5015073;28;20919;-88
2023/09/25 13:01:45;;;;;;;22.23;20.87;;;;;;;;;;5030689;28;20463;-88
2023/09/25 13:04:12;;;;;;;22.63;21.13;;;;;;;;;;5032851;28;20464;-89
2023/09/25 13:06:39;;;;;;;22.33;21.03;;;;;;;;;;5033086;28;20446;-89
2023/09/25 13:09:07;;;;;;;22.53;21.13;;;;;;;;;;5016312;28;20543;-89
2023/09/25 13:11:36;;;;;;;22.87;21.47;;;;;;;;;;5013754;28;20509;-89
2023/09/25 13:14:04;;;;;;;23.33;21.97;;;;;;;;;;5015945;28;20484;-89
2023/09/25 13:16:33;;;;;;;22.40;21.00;;;;;;;;;;5017378;28;20530;-89
2023/09/25 13:19:00;;;;;;;22.73;21.33;;;;;;;;;;5017872;28;20423;-89
2023/09/25 13:21:28;;;;;;;22.73;21.20;;;;;;;;;;5017320;28;20955;-89
2023/09/25 13:23:56;;;;;;;22.63;21.23;;;;;;;;;;5017544;28;20476;-89
2023/09/25 13:26:24;;;;;;;22.27;20.97;;;;;;;;;;5017334;28;20449;-89
2023/09/25 13:28:51;;;;;;;21.87;20.60;;;;;;;;;;5017150;28;20835;-89
2023/09/25 13:31:18;;;;;;;22.37;21.00;;;;;;;;;;5017401;28;20441;-89
2023/09/25 13:33:47;;;;;;;21.80;20.40;;;;;;;;;;5028812;28;20494;-89
2023/09/25 13:36:14;;;;;;;22.10;20.80;;;;;;;;;;5037229;28;20439;-83
2023/09/25 13:38:41;;;;;;;22.67;21.17;;;;;;;;;;5039420;28;20439;-84
2023/09/25 13:41:10;;;;;;;23.60;22.20;;;;;;;;;;5038890;28;20419;-85
2023/09/25 13:43:37;;;;;;;22.03;20.77;;;;;;;;;;5037502;28;21020;-89
2023/09/25 13:46:06;;;;;;;22.93;21.63;;;;;;;;;;5037760;28;20471;-80
2023/09/25 13:48:35;;;;;;;23.40;22.10;;;;;;;;;;5038211;28;20850;-81
2023/09/25 13:51:04;;;;;;;23.00;21.80;;;;;;;;;;5037288;28;20546;-80
2023/09/25 13:53:32;;;;;;;22.80;21.50;;;;;;;;;;5037272;28;20517;-82
2023/09/25 13:55:59;;;;;;;23.50;22.00;;;;;;;;;;5035172;28;20533;-84
2023/09/25 13:58:26;;;;;;;24.80;23.40;;;;;;;;;;5038770;28;20961;-85
2023/09/25 14:00:55;;;;;;;23.00;21.70;;;;;;;;;;5037549;28;20451;-85
2023/09/25 14:03:23;;;;;;;23.33;21.97;;;;;;;;;;5023519;28;20550;-85
2023/09/25 14:05:50;;;;;;;23.00;21.60;;;;;;;;;;5028780;28;20571;-84
2023/09/25 14:08:19;;;;;;;23.50;22.10;;;;;;;;;;5035130;28;20460;-84
2023/09/25 14:10:47;;;;;;;23.50;22.20;;;;;;;;;;5035814;28;20462;-85
2023/09/25 14:13:15;;;;;;;23.77;22.50;;;;;;;;;;5038457;28;20902;-87
2023/09/25 14:15:42;;;;;;;23.20;21.80;;;;;;;;;;5038232;28;20459;-83
2023/09/25 14:18:10;;;;;;;23.47;22.17;;;;;;;;;;5038564;28;20462;-86
2023/09/25 14:20:37;;;;;;;23.00;21.70;;;;;;;;;;5038837;28;20494;-86